createdAt,value
2023-04-07T00:00:28.268Z,50.19
2023-04-07T00:02:56.004Z,50.22
2023-04-07T00:05:22.958Z,50.20
2023-04-07T00:07:56.357Z,50.24
2023-04-07T00:10:25.325Z,50.31
2023-04-07T00:12:52.497Z,50.42
2023-04-07T00:15:19.232Z,50.43
2023-04-07T00:17:45.876Z,50.61
2023-04-07T00:20:12.718Z,50.42
2023-04-07T00:22:39.289Z,50.44
2023-04-07T00:25:06.595Z,50.61
2023-04-07T00:27:33.195Z,50.57
2023-04-07T00:29:59.918Z,50.61
2023-04-07T00:32:26.528Z,50.71
2023-04-07T00:34:53.215Z,50.84
2023-04-07T00:37:20.055Z,50.94
2023-04-07T00:39:46.691Z,50.88
2023-04-07T00:42:13.569Z,50.84
2023-04-07T00:44:40.500Z,50.97
2023-04-07T00:47:07.149Z,50.99
2023-04-07T00:49:33.961Z,50.91
2023-04-07T00:52:01.300Z,50.91
2023-04-07T00:54:28.002Z,50.96
2023-04-07T00:56:54.760Z,51.24
2023-04-07T00:59:21.917Z,51.08
2023-04-07T01:02:07.354Z,51.72
2023-04-07T01:04:59.075Z,52.22
2023-04-07T01:07:35.619Z,52.04
2023-04-07T01:10:14.966Z,51.69
2023-04-07T01:12:59.938Z,51.95
2023-04-07T01:15:30.203Z,51.51
2023-04-07T01:18:06.566Z,51.65
2023-04-07T01:20:34.780Z,51.36
2023-04-07T01:23:05.782Z,51.75
2023-04-07T01:26:04.345Z,51.59
2023-04-07T01:28:55.963Z,51.95
2023-04-07T01:31:23.528Z,51.41
2023-04-07T01:33:51.519Z,51.31
2023-04-07T01:36:18.632Z,51.49
2023-04-07T01:38:46.143Z,51.33
2023-04-07T01:41:15.559Z,51.70
2023-04-07T01:43:45.145Z,51.51
2023-04-07T01:46:12.466Z,51.43
2023-04-07T01:48:40.278Z,51.54
2023-04-07T01:51:08.304Z,51.61
2023-04-07T01:53:35.512Z,51.40
2023-04-07T01:56:02.120Z,51.30
2023-04-07T01:58:30.161Z,51.05
2023-04-07T02:00:57.331Z,51.18
2023-04-07T02:03:30.438Z,52.23
2023-04-07T02:06:03.046Z,51.84
2023-04-07T02:08:32.801Z,52.05
2023-04-07T02:11:02.092Z,52.51
2023-04-07T02:13:34.291Z,52.51
2023-04-07T02:16:02.275Z,52.40
2023-04-07T02:18:31.426Z,52.57
2023-04-07T02:21:00.823Z,52.30
2023-04-07T02:23:28.029Z,52.27
2023-04-07T02:25:57.821Z,52.51
2023-04-07T02:28:24.390Z,52.22
2023-04-07T02:30:50.955Z,52.12
2023-04-07T02:33:17.615Z,52.41
2023-04-07T02:35:44.267Z,52.45
2023-04-07T02:38:10.831Z,52.47
2023-04-07T02:40:37.598Z,52.39
2023-04-07T02:43:04.173Z,52.45
2023-04-07T02:45:31.247Z,52.51
2023-04-07T02:47:57.874Z,52.56
2023-04-07T02:50:24.491Z,52.59
2023-04-07T02:52:51.203Z,52.50
2023-04-07T02:55:17.970Z,52.65
2023-04-07T02:57:44.753Z,52.59
2023-04-07T03:00:31.405Z,52.43
2023-04-07T03:03:07.345Z,52.32
2023-04-07T03:05:37.076Z,52.75
2023-04-07T03:08:05.244Z,52.67
2023-04-07T03:10:32.292Z,52.58
2023-04-07T03:12:58.895Z,52.46
2023-04-07T03:15:25.791Z,52.49
2023-04-07T03:17:52.546Z,52.48
2023-04-07T03:20:20.244Z,52.79
2023-04-07T03:22:47.003Z,52.59
2023-04-07T03:25:20.727Z,52.53
2023-04-07T03:27:48.682Z,52.31
2023-04-07T03:30:15.697Z,52.72
2023-04-07T03:32:44.135Z,52.79
2023-04-07T03:35:11.087Z,52.63
2023-04-07T03:37:38.001Z,52.78
2023-04-07T03:40:08.682Z,52.74
2023-04-07T03:42:36.165Z,52.95
2023-04-07T03:45:06.751Z,53.11
2023-04-07T03:47:35.250Z,52.99
2023-04-07T03:50:04.523Z,52.96
2023-04-07T03:52:36.166Z,53.18
2023-04-07T03:55:11.862Z,53.36
2023-04-07T03:57:40.442Z,53.21
2023-04-07T04:00:08.243Z,53.70
2023-04-07T04:02:43.188Z,53.77
2023-04-07T04:05:13.908Z,54.31
2023-04-07T04:07:40.741Z,55.48
2023-04-07T04:10:08.432Z,56.80
2023-04-07T04:12:40.720Z,58.92
2023-04-07T04:15:10.573Z,59.48
2023-04-07T04:17:38.213Z,59.21
2023-04-07T04:20:06.486Z,59.03
2023-04-07T04:22:43.029Z,58.90
2023-04-07T04:25:09.950Z,59.00
2023-04-07T04:27:36.837Z,59.17
2023-04-07T04:30:14.823Z,59.04
2023-04-07T04:32:49.261Z,58.98
2023-04-07T04:35:19.283Z,59.04
2023-04-07T04:38:01.145Z,58.94
2023-04-07T04:40:27.984Z,58.79
2023-04-07T04:42:54.887Z,59.05
2023-04-07T04:45:22.850Z,58.73
2023-04-07T04:47:50.212Z,58.62
2023-04-07T04:50:17.302Z,58.82
2023-04-07T04:52:46.031Z,58.77
2023-04-07T04:55:19.499Z,58.62
2023-04-07T04:57:46.855Z,58.66
2023-04-07T05:00:18.477Z,58.71
2023-04-07T05:02:48.206Z,58.77
2023-04-07T05:05:15.440Z,58.57
2023-04-07T05:07:43.361Z,58.40
2023-04-07T05:10:12.791Z,58.86
2023-04-07T05:12:46.133Z,58.51
2023-04-07T05:15:12.726Z,58.50
2023-04-07T05:17:40.126Z,58.28
2023-04-07T05:20:10.955Z,58.39
2023-04-07T05:22:40.683Z,58.24
2023-04-07T05:25:10.580Z,58.13
2023-04-07T05:27:38.362Z,58.67
2023-04-07T05:30:10.945Z,57.97
2023-04-07T05:32:37.759Z,57.87
2023-04-07T05:35:11.718Z,57.87
2023-04-07T05:37:47.050Z,58.05
2023-04-07T05:40:13.853Z,57.97
2023-04-07T05:42:40.450Z,57.84
2023-04-07T05:45:08.481Z,58.18
2023-04-07T05:47:38.978Z,58.18
2023-04-07T05:50:06.169Z,58.24
2023-04-07T05:52:36.322Z,58.13
2023-04-07T05:55:14.442Z,57.65
2023-04-07T05:57:41.562Z,57.84
2023-04-07T06:00:09.662Z,57.83
2023-04-07T06:02:41.257Z,57.91
2023-04-07T06:05:13.833Z,57.97
2023-04-07T06:07:40.843Z,58.01
2023-04-07T06:10:08.777Z,58.22
2023-04-07T06:12:35.345Z,58.09
2023-04-07T06:15:02.075Z,58.28
2023-04-07T06:17:28.821Z,58.22
2023-04-07T06:19:55.676Z,58.13
2023-04-07T06:22:22.286Z,58.21
2023-04-07T06:24:48.857Z,58.24
2023-04-07T06:27:15.624Z,58.43
2023-04-07T06:29:42.195Z,58.37
2023-04-07T06:32:09.606Z,58.72
2023-04-07T06:34:36.353Z,58.76
2023-04-07T06:37:02.958Z,58.65
2023-04-07T06:39:30.573Z,58.82
2023-04-07T06:41:57.165Z,58.92
2023-04-07T06:44:23.944Z,59.15
2023-04-07T06:46:50.513Z,58.99
2023-04-07T06:49:17.158Z,58.85
2023-04-07T06:51:43.704Z,58.82
2023-04-07T06:54:10.310Z,58.80
2023-04-07T06:56:36.886Z,58.73
2023-04-07T06:59:03.463Z,58.70
2023-04-07T07:01:30.284Z,58.58
2023-04-07T07:03:57.099Z,58.76
2023-04-07T07:06:23.894Z,58.70
2023-04-07T07:08:50.475Z,58.74
2023-04-07T07:11:17.024Z,58.60
2023-04-07T07:13:43.620Z,58.38
2023-04-07T07:16:10.168Z,58.41
2023-04-07T07:18:36.716Z,58.45
2023-04-07T07:21:03.395Z,58.45
2023-04-07T07:23:30.249Z,58.44
2023-04-07T07:25:56.968Z,58.34
2023-04-07T07:28:23.699Z,58.30
2023-04-07T07:30:50.321Z,58.04
2023-04-07T07:33:16.903Z,58.09
2023-04-07T07:35:43.516Z,57.91
2023-04-07T07:38:10.155Z,57.47
2023-04-07T07:40:36.699Z,57.33
2023-04-07T07:43:03.384Z,57.16
2023-04-07T07:45:30.075Z,57.14
2023-04-07T07:47:56.758Z,57.17
2023-04-07T07:50:23.651Z,56.83
2023-04-07T07:52:50.216Z,56.52
2023-04-07T07:55:16.790Z,56.71
2023-04-07T07:57:43.490Z,56.52
2023-04-07T08:00:10.707Z,56.22
2023-04-07T08:02:40.189Z,56.25
2023-04-07T08:05:07.570Z,56.25
2023-04-07T08:07:34.346Z,56.16
2023-04-07T08:10:00.944Z,55.78
2023-04-07T08:12:27.655Z,55.63
2023-04-07T08:14:54.238Z,55.49
2023-04-07T08:17:20.803Z,55.73
2023-04-07T08:19:47.509Z,55.33
2023-04-07T08:22:14.314Z,55.43
2023-04-07T08:24:40.892Z,55.26
2023-04-07T08:27:07.459Z,55.00
2023-04-07T08:29:34.047Z,54.83
2023-04-07T08:32:00.696Z,54.77
2023-04-07T08:34:27.345Z,54.84
2023-04-07T08:36:53.936Z,54.89
2023-04-07T08:39:20.490Z,54.95
2023-04-07T08:41:47.505Z,54.93
2023-04-07T08:44:15.239Z,54.62
2023-04-07T08:46:43.365Z,54.58
2023-04-07T08:49:11.825Z,53.94
2023-04-07T08:51:42.692Z,54.85
2023-04-07T08:54:13.826Z,53.84
2023-04-07T08:56:42.100Z,53.99
2023-04-07T08:59:11.374Z,53.69
2023-04-07T09:01:39.276Z,53.94
2023-04-07T09:04:07.169Z,54.05
2023-04-07T09:06:34.515Z,53.59
2023-04-07T09:09:02.346Z,52.85
2023-04-07T09:11:30.300Z,52.61
2023-04-07T09:13:57.150Z,53.03
2023-04-07T09:16:23.897Z,52.75
2023-04-07T09:18:50.558Z,52.20
2023-04-07T09:21:17.119Z,51.71
2023-04-07T09:23:43.753Z,51.06
2023-04-07T09:26:26.648Z,48.80
2023-04-07T09:28:54.273Z,50.55
2023-04-07T09:31:21.298Z,50.64
2023-04-07T09:33:49.707Z,50.07
2023-04-07T09:36:16.535Z,50.34
2023-04-07T09:38:44.364Z,49.65
2023-04-07T09:41:13.643Z,48.28
2023-04-07T09:43:45.293Z,47.95
2023-04-07T09:46:20.110Z,47.40
2023-04-07T09:48:46.906Z,49.95
2023-04-07T09:51:15.841Z,48.99
2023-04-07T09:53:50.599Z,48.51
2023-04-07T09:56:20.080Z,49.28
2023-04-07T09:58:47.373Z,49.19
2023-04-07T10:01:15.846Z,48.11
2023-04-07T10:03:42.864Z,48.43
2023-04-07T10:06:09.709Z,47.95
2023-04-07T10:08:38.316Z,47.50
2023-04-07T10:11:06.024Z,46.64
2023-04-07T10:13:34.607Z,45.94
2023-04-07T10:16:05.200Z,45.60
2023-04-07T10:18:35.968Z,45.58
2023-04-07T10:21:07.820Z,44.58
2023-04-07T10:24:09.223Z,44.06
2023-04-07T10:26:40.620Z,46.48
2023-04-07T10:29:12.280Z,45.71
2023-04-07T10:31:39.705Z,47.39
2023-04-07T10:34:06.347Z,47.39
2023-04-07T10:36:32.964Z,47.75
2023-04-07T10:39:08.641Z,45.48
2023-04-07T10:41:39.916Z,44.78
2023-04-07T10:44:08.618Z,47.77
2023-04-07T10:46:46.945Z,46.08
2023-04-07T10:49:15.115Z,47.18
2023-04-07T10:51:43.296Z,47.68
2023-04-07T10:54:16.493Z,45.42
2023-04-07T10:57:08.913Z,43.55
2023-04-07T10:59:36.366Z,46.66
2023-04-07T11:02:31.072Z,42.68
2023-04-07T11:04:57.876Z,46.47
2023-04-07T11:07:44.723Z,45.79
2023-04-07T11:10:12.603Z,38.67
2023-04-07T11:12:39.145Z,40.27
2023-04-07T11:15:19.461Z,39.56
2023-04-07T11:17:46.211Z,39.77
2023-04-07T11:20:12.814Z,39.78
2023-04-07T11:22:39.388Z,40.83
2023-04-07T11:25:20.973Z,39.64
2023-04-07T11:27:47.592Z,40.91
2023-04-07T11:30:16.072Z,38.89
2023-04-07T11:32:42.698Z,40.81
2023-04-07T11:35:09.739Z,40.31
2023-04-07T11:37:36.306Z,41.25
2023-04-07T11:40:03.041Z,40.44
2023-04-07T11:42:38.135Z,39.63
2023-04-07T11:45:07.745Z,41.02
2023-04-07T11:47:36.482Z,41.23
2023-04-07T11:50:03.417Z,41.34
2023-04-07T11:52:41.496Z,39.01
2023-04-07T11:55:16.596Z,37.84
2023-04-07T11:57:43.274Z,39.44
2023-04-07T12:00:11.849Z,40.11
2023-04-07T12:02:38.930Z,38.61
2023-04-07T12:05:06.752Z,39.17
2023-04-07T12:07:33.475Z,38.18
2023-04-07T12:10:18.540Z,37.50
2023-04-07T12:12:46.157Z,39.50
2023-04-07T12:15:13.013Z,39.07
2023-04-07T12:17:45.319Z,38.46
2023-04-07T12:20:12.236Z,39.50
2023-04-07T12:22:39.160Z,39.51
2023-04-07T12:25:06.259Z,39.11
2023-04-07T12:27:42.254Z,38.76
2023-04-07T12:30:10.391Z,38.95
2023-04-07T12:32:37.037Z,39.26
2023-04-07T12:35:03.766Z,39.39
2023-04-07T12:37:30.328Z,40.34
2023-04-07T12:39:56.900Z,40.70
2023-04-07T12:42:23.454Z,41.33
2023-04-07T12:44:50.098Z,40.53
2023-04-07T12:47:16.695Z,40.58
2023-04-07T12:49:43.274Z,39.19
2023-04-07T12:52:09.872Z,38.43
2023-04-07T12:54:36.515Z,38.36
2023-04-07T12:57:03.112Z,37.53
2023-04-07T12:59:29.662Z,36.14
2023-04-07T13:01:56.382Z,36.24
2023-04-07T13:04:23.189Z,36.18
2023-04-07T13:06:49.995Z,35.87
2023-04-07T13:09:16.661Z,35.99
2023-04-07T13:11:43.233Z,35.66
2023-04-07T13:14:09.780Z,36.48
2023-04-07T13:16:36.501Z,37.08
2023-04-07T13:19:03.113Z,36.10
2023-04-07T13:21:45.326Z,37.07
2023-04-07T13:24:13.107Z,36.97
2023-04-07T13:26:39.672Z,37.60
2023-04-07T13:29:06.212Z,38.74
2023-04-07T13:31:32.779Z,37.82
2023-04-07T13:33:59.326Z,37.54
2023-04-07T13:36:25.963Z,37.63
2023-04-07T13:38:52.551Z,38.07
2023-04-07T13:41:19.189Z,37.85
2023-04-07T13:43:45.790Z,37.13
2023-04-07T13:46:27.066Z,35.10
2023-04-07T13:48:54.846Z,35.87
2023-04-07T13:51:21.409Z,35.92
2023-04-07T13:53:48.228Z,36.63
2023-04-07T13:56:15.120Z,36.30
2023-04-07T13:58:41.751Z,37.46
2023-04-07T14:01:08.392Z,36.99
2023-04-07T14:03:35.022Z,37.72
2023-04-07T14:06:02.588Z,38.58
2023-04-07T14:08:29.196Z,38.75
2023-04-07T14:10:55.805Z,38.94
2023-04-07T14:13:22.590Z,38.65
2023-04-07T14:15:50.324Z,38.23
2023-04-07T14:18:17.007Z,38.39
2023-04-07T14:20:43.544Z,38.00
2023-04-07T14:23:10.184Z,37.21
2023-04-07T14:25:36.758Z,37.91
2023-04-07T14:28:03.370Z,38.18
2023-04-07T14:30:29.972Z,38.72
2023-04-07T14:32:56.811Z,39.21
2023-04-07T14:35:23.479Z,39.68
2023-04-07T14:37:50.127Z,38.88
2023-04-07T14:40:16.693Z,39.23
2023-04-07T14:42:43.238Z,39.13
2023-04-07T14:45:10.240Z,39.52
2023-04-07T14:47:36.969Z,40.35
2023-04-07T14:50:03.675Z,39.94
2023-04-07T14:52:30.227Z,39.38
2023-04-07T14:54:57.906Z,39.67
2023-04-07T14:57:26.259Z,38.86
2023-04-07T14:59:52.976Z,38.47
2023-04-07T15:02:19.651Z,39.56
2023-04-07T15:04:46.600Z,39.86
2023-04-07T15:07:13.225Z,39.24
2023-04-07T15:09:39.818Z,38.65
2023-04-07T15:12:06.409Z,38.83
2023-04-07T15:14:32.969Z,39.16
2023-04-07T15:16:59.611Z,39.28
2023-04-07T15:19:26.187Z,39.61
2023-04-07T15:21:53.029Z,40.22
2023-04-07T15:24:19.608Z,40.01
2023-04-07T15:26:46.375Z,39.73
2023-04-07T15:29:13.032Z,40.61
2023-04-07T15:31:39.650Z,40.06
2023-04-07T15:34:06.220Z,40.51
2023-04-07T15:36:32.882Z,40.44
2023-04-07T15:39:06.086Z,40.46
2023-04-07T15:41:33.570Z,41.16
2023-04-07T15:44:01.051Z,41.05
2023-04-07T15:46:28.165Z,40.43
2023-04-07T15:48:55.392Z,40.62
2023-04-07T15:51:22.040Z,40.63
2023-04-07T15:53:48.811Z,40.91
2023-04-07T15:56:15.672Z,41.10
2023-04-07T15:58:42.338Z,41.83
2023-04-07T16:01:09.145Z,41.16
2023-04-07T16:03:35.996Z,41.32
2023-04-07T16:06:02.666Z,41.80
2023-04-07T16:08:29.192Z,41.80
2023-04-07T16:10:55.935Z,41.66
2023-04-07T16:13:22.598Z,41.92
2023-04-07T16:15:49.234Z,41.88
2023-04-07T16:18:15.923Z,42.06
2023-04-07T16:20:42.561Z,41.63
2023-04-07T16:23:09.327Z,41.95
2023-04-07T16:25:35.967Z,41.94
2023-04-07T16:28:02.590Z,41.28
2023-04-07T16:30:29.226Z,41.60
2023-04-07T16:32:55.842Z,41.93
2023-04-07T16:35:22.588Z,42.30
2023-04-07T16:37:49.184Z,42.16
2023-04-07T16:40:15.887Z,42.32
2023-04-07T16:42:42.598Z,42.35
2023-04-07T16:45:09.588Z,42.48
2023-04-07T16:47:38.056Z,42.31
2023-04-07T16:50:05.238Z,42.74
2023-04-07T16:52:32.336Z,42.83
2023-04-07T16:54:59.616Z,43.02
2023-04-07T16:57:26.252Z,43.16
2023-04-07T16:59:52.898Z,43.37
2023-04-07T17:02:20.097Z,43.83
2023-04-07T17:04:46.898Z,43.77
2023-04-07T17:07:13.835Z,43.93
2023-04-07T17:09:40.424Z,44.16
2023-04-07T17:12:07.174Z,44.18
2023-04-07T17:14:34.191Z,44.12
2023-04-07T17:17:01.496Z,44.20
2023-04-07T17:19:28.356Z,43.97
2023-04-07T17:21:54.912Z,44.29
2023-04-07T17:24:22.693Z,44.55
2023-04-07T17:26:49.442Z,44.50
2023-04-07T17:29:16.976Z,44.61
2023-04-07T17:31:43.885Z,44.72
2023-04-07T17:34:10.937Z,44.92
2023-04-07T17:36:37.710Z,44.91
2023-04-07T17:39:05.064Z,44.98
2023-04-07T17:41:34.750Z,45.35
2023-04-07T17:44:01.455Z,45.31
2023-04-07T17:46:28.203Z,45.37
2023-04-07T17:48:54.827Z,45.51
2023-04-07T17:51:21.441Z,45.75
2023-04-07T17:53:48.209Z,45.93
2023-04-07T17:56:14.921Z,46.01
2023-04-07T17:58:41.553Z,46.17
2023-04-07T18:01:09.646Z,46.54
2023-04-07T18:03:36.676Z,46.44
2023-04-07T18:06:03.874Z,46.39
2023-04-07T18:08:30.523Z,46.64
2023-04-07T18:10:57.120Z,46.78
2023-04-07T18:13:23.671Z,47.00
2023-04-07T18:15:50.392Z,47.18
2023-04-07T18:18:17.075Z,47.31
2023-04-07T18:20:43.753Z,47.41
2023-04-07T18:23:10.354Z,47.39
2023-04-07T18:25:36.937Z,47.58
2023-04-07T18:28:03.511Z,47.86
2023-04-07T18:30:30.094Z,47.87
2023-04-07T18:32:56.682Z,48.11
2023-04-07T18:35:23.462Z,48.21
2023-04-07T18:37:50.020Z,48.29
2023-04-07T18:40:16.651Z,48.41
2023-04-07T18:42:43.366Z,48.56
2023-04-07T18:45:10.273Z,48.71
2023-04-07T18:47:37.072Z,48.74
2023-04-07T18:50:04.095Z,48.81
2023-04-07T18:52:30.656Z,48.87
2023-04-07T18:54:57.251Z,48.87
2023-04-07T18:57:23.853Z,49.05
2023-04-07T18:59:50.490Z,49.23
2023-04-07T19:02:17.244Z,49.21
2023-04-07T19:04:43.903Z,49.41
2023-04-07T19:07:10.491Z,49.34
2023-04-07T19:09:37.103Z,49.51
2023-04-07T19:12:03.902Z,49.58
2023-04-07T19:14:30.506Z,49.64
2023-04-07T19:16:57.210Z,49.80
2023-04-07T19:19:23.764Z,49.82
2023-04-07T19:21:50.432Z,50.06
2023-04-07T19:24:17.077Z,50.30
2023-04-07T19:26:43.669Z,50.09
2023-04-07T19:29:10.226Z,50.11
2023-04-07T19:31:36.881Z,50.11
2023-04-07T19:34:03.696Z,50.25
2023-04-07T19:36:30.759Z,50.37
2023-04-07T19:38:57.354Z,50.41
2023-04-07T19:41:24.160Z,50.62
2023-04-07T19:43:50.796Z,50.80
2023-04-07T19:46:17.588Z,50.69
2023-04-07T19:48:44.275Z,50.85
2023-04-07T19:51:10.871Z,51.01
2023-04-07T19:53:37.548Z,51.11
2023-04-07T19:56:04.120Z,50.89
2023-04-07T19:58:32.731Z,51.19
2023-04-07T20:00:59.438Z,51.09
2023-04-07T20:03:26.296Z,51.09
2023-04-07T20:05:53.043Z,51.18
2023-04-07T20:08:22.336Z,51.35
2023-04-07T20:10:50.984Z,51.37
2023-04-07T20:13:17.564Z,51.35
2023-04-07T20:15:44.174Z,51.16
2023-04-07T20:18:10.873Z,51.37
2023-04-07T20:20:37.509Z,51.50
2023-04-07T20:23:04.266Z,51.50
2023-04-07T20:25:30.869Z,51.38
2023-04-07T20:27:57.445Z,51.47
2023-04-07T20:30:24.091Z,51.68
2023-04-07T20:32:50.814Z,51.59
2023-04-07T20:35:17.810Z,51.69
2023-04-07T20:37:44.459Z,51.89
2023-04-07T20:40:11.876Z,51.73
2023-04-07T20:42:38.845Z,51.78
2023-04-07T20:45:05.763Z,51.85
2023-04-07T20:47:32.626Z,51.83
2023-04-07T20:49:59.226Z,51.81
2023-04-07T20:52:25.813Z,51.79
2023-04-07T20:54:52.530Z,51.85
2023-04-07T20:57:19.181Z,51.77
2023-04-07T20:59:45.734Z,51.80
2023-04-07T21:02:12.428Z,52.02
2023-04-07T21:04:39.075Z,51.90
2023-04-07T21:07:05.816Z,51.96
2023-04-07T21:09:32.493Z,52.29
2023-04-07T21:11:59.107Z,52.38
2023-04-07T21:14:25.654Z,52.53
2023-04-07T21:16:52.365Z,52.43
2023-04-07T21:19:18.980Z,52.60
2023-04-07T21:21:45.511Z,52.64
2023-04-07T21:24:12.083Z,52.61
2023-04-07T21:26:38.732Z,52.60
2023-04-07T21:29:05.339Z,52.56
2023-04-07T21:31:32.794Z,52.53
2023-04-07T21:33:59.420Z,52.51
2023-04-07T21:36:25.999Z,52.64
2023-04-07T21:38:52.760Z,52.55
2023-04-07T21:41:19.477Z,52.45
2023-04-07T21:43:46.024Z,52.42
2023-04-07T21:46:12.657Z,52.43
2023-04-07T21:48:39.324Z,52.65
2023-04-07T21:51:05.953Z,52.67
2023-04-07T21:53:32.598Z,52.68
2023-04-07T21:55:59.159Z,52.97
2023-04-07T21:58:25.731Z,52.94
2023-04-07T22:00:53.188Z,52.99
2023-04-07T22:03:20.050Z,53.05
2023-04-07T22:05:46.702Z,52.96
2023-04-07T22:08:13.293Z,53.28
2023-04-07T22:10:39.874Z,53.22
2023-04-07T22:13:06.534Z,53.33
2023-04-07T22:15:33.160Z,53.42
2023-04-07T22:17:59.756Z,53.47
2023-04-07T22:20:26.447Z,53.36
2023-04-07T22:22:53.150Z,53.54
2023-04-07T22:25:19.944Z,53.54
2023-04-07T22:27:46.539Z,53.67
2023-04-07T22:30:13.196Z,53.88
2023-04-07T22:32:39.972Z,53.82
2023-04-07T22:35:06.765Z,53.99
2023-04-07T22:37:33.692Z,54.04
2023-04-07T22:40:00.380Z,54.27
2023-04-07T22:42:27.164Z,54.17
2023-04-07T22:44:53.746Z,54.21
2023-04-07T22:47:21.316Z,54.26
2023-04-07T22:49:48.280Z,54.40
2023-04-07T22:52:14.860Z,54.48
2023-04-07T22:54:41.438Z,54.61
2023-04-07T22:57:08.145Z,54.57
2023-04-07T22:59:34.851Z,54.64
2023-04-07T23:02:01.455Z,54.68
2023-04-07T23:04:28.037Z,54.63
2023-04-07T23:06:54.715Z,54.70
2023-04-07T23:09:21.374Z,54.84
2023-04-07T23:11:48.019Z,54.83
2023-04-07T23:14:15.381Z,55.05
2023-04-07T23:16:41.995Z,55.04
2023-04-07T23:19:08.611Z,55.11
2023-04-07T23:21:35.145Z,55.07
2023-04-07T23:24:01.804Z,55.14
2023-04-07T23:26:28.465Z,55.17
2023-04-07T23:28:55.186Z,55.28
2023-04-07T23:31:21.742Z,55.36
2023-04-07T23:33:48.433Z,55.37
2023-04-07T23:36:15.201Z,55.93
2023-04-07T23:38:41.978Z,55.66
2023-04-07T23:41:08.655Z,55.82
2023-04-07T23:43:35.390Z,55.74
2023-04-07T23:46:02.112Z,55.74
2023-04-07T23:48:28.921Z,55.93
2023-04-07T23:50:55.447Z,55.94
2023-04-07T23:53:21.985Z,56.04
2023-04-07T23:55:49.273Z,56.15
2023-04-07T23:58:16.031Z,56.05
